sensor_id;sensor_type;location;lat;lon;timestamp;noise_LAeq;noise_LA_min;noise_LA_max;noise_LA01;noise_LA95
186;Laerm;55473;48.800;9.002;2023-02-23T00:01:22;36.86;33.10;43.48;;
186;Laerm;55473;48.800;9.002;2023-02-23T00:03:49;39.72;33.17;64.47;;
186;Laerm;55473;48.800;9.002;2023-02-23T00:06:17;35.79;33.38;43.27;;
186;Laerm;55473;48.800;9.002;2023-02-23T00:08:44;39.10;34.46;48.17;;
186;Laerm;55473;48.800;9.002;2023-02-23T00:11:15;40.21;36.82;65.41;;
186;Laerm;55473;48.800;9.002;2023-02-23T00:13:43;39.88;36.71;54.17;;
186;Laerm;55473;48.800;9.002;2023-02-23T00:16:14;39.09;37.03;51.76;;
186;Laerm;55473;48.800;9.002;2023-02-23T00:18:48;39.55;36.92;46.49;;
186;Laerm;55473;48.800;9.002;2023-02-23T00:21:20;42.30;37.22;52.30;;
186;Laerm;55473;48.800;9.002;2023-02-23T00:23:54;40.73;36.13;46.15;;
186;Laerm;55473;48.800;9.002;2023-02-23T00:26:25;37.39;34.72;46.51;;
186;Laerm;55473;48.800;9.002;2023-02-23T00:28:54;38.74;34.63;47.16;;
186;Laerm;55473;48.800;9.002;2023-02-23T00:31:23;36.56;33.89;44.38;;
186;Laerm;55473;48.800;9.002;2023-02-23T00:33:52;36.60;33.89;44.55;;
186;Laerm;55473;48.800;9.002;2023-02-23T00:36:26;36.00;33.55;42.10;;
186;Laerm;55473;48.800;9.002;2023-02-23T00:38:55;36.61;33.70;45.33;;
186;Laerm;55473;48.800;9.002;2023-02-23T00:41:23;36.77;34.15;43.30;;
186;Laerm;55473;48.800;9.002;2023-02-23T00:43:59;37.43;33.99;45.52;;
186;Laerm;55473;48.800;9.002;2023-02-23T00:46:29;37.14;33.94;45.25;;
186;Laerm;55473;48.800;9.002;2023-02-23T00:48:57;36.13;33.70;41.44;;
186;Laerm;55473;48.800;9.002;2023-02-23T00:51:26;35.67;33.44;53.50;;
186;Laerm;55473;48.800;9.002;2023-02-23T00:53:59;35.13;33.01;44.32;;
186;Laerm;55473;48.800;9.002;2023-02-23T00:56:26;36.39;33.33;52.31;;
186;Laerm;55473;48.800;9.002;2023-02-23T00:58:53;35.82;33.23;43.27;;
186;Laerm;55473;48.800;9.002;2023-02-23T01:01:19;36.17;33.24;54.64;;
186;Laerm;55473;48.800;9.002;2023-02-23T01:03:45;36.97;33.94;60.34;;
186;Laerm;55473;48.800;9.002;2023-02-23T01:06:14;36.84;33.69;54.78;;
186;Laerm;55473;48.800;9.002;2023-02-23T01:08:44;35.54;33.56;44.41;;
186;Laerm;55473;48.800;9.002;2023-02-23T01:11:20;35.14;33.33;43.20;;
186;Laerm;55473;48.800;9.002;2023-02-23T01:13:50;35.54;33.01;57.18;;
186;Laerm;55473;48.800;9.002;2023-02-23T01:16:20;36.49;33.49;46.21;;
186;Laerm;55473;48.800;9.002;2023-02-23T01:18:47;37.05;33.36;60.94;;
186;Laerm;55473;48.800;9.002;2023-02-23T01:21:30;36.72;33.34;47.57;;
186;Laerm;55473;48.800;9.002;2023-02-23T01:23:57;37.34;33.57;62.02;;
186;Laerm;55473;48.800;9.002;2023-02-23T01:26:27;36.21;33.21;55.19;;
186;Laerm;55473;48.800;9.002;2023-02-23T01:28:59;37.01;32.78;60.99;;
186;Laerm;55473;48.800;9.002;2023-02-23T01:31:27;36.13;33.33;53.28;;
186;Laerm;55473;48.800;9.002;2023-02-23T01:34:00;35.68;33.16;47.35;;
186;Laerm;55473;48.800;9.002;2023-02-23T01:36:28;36.36;32.91;61.79;;
186;Laerm;55473;48.800;9.002;2023-02-23T01:38:55;35.67;33.52;46.08;;
186;Laerm;55473;48.800;9.002;2023-02-23T01:41:23;36.01;33.27;53.82;;
186;Laerm;55473;48.800;9.002;2023-02-23T01:46:55;36.80;33.62;54.62;;
186;Laerm;55473;48.800;9.002;2023-02-23T01:49:28;37.95;34.02;48.66;;
186;Laerm;55473;48.800;9.002;2023-02-23T01:52:09;37.95;34.62;47.20;;
186;Laerm;55473;48.800;9.002;2023-02-23T01:54:45;38.14;34.67;49.58;;
186;Laerm;55473;48.800;9.002;2023-02-23T01:57:17;42.25;34.95;57.19;;
186;Laerm;55473;48.800;9.002;2023-02-23T01:59:47;44.28;36.52;61.58;;
186;Laerm;55473;48.800;9.002;2023-02-23T02:02:21;40.15;36.09;48.38;;
186;Laerm;55473;48.800;9.002;2023-02-23T02:04:48;41.98;39.77;49.47;;
186;Laerm;55473;48.800;9.002;2023-02-23T02:07:25;41.96;39.77;50.35;;
186;Laerm;55473;48.800;9.002;2023-02-23T02:09:55;42.12;40.11;48.00;;
186;Laerm;55473;48.800;9.002;2023-02-23T02:12:54;42.02;39.99;49.85;;
186;Laerm;55473;48.800;9.002;2023-02-23T02:15:28;41.79;37.54;48.65;;
186;Laerm;55473;48.800;9.002;2023-02-23T02:24:49;40.41;37.74;52.43;;
186;Laerm;55473;48.800;9.002;2023-02-23T02:39:11;41.43;37.56;52.75;;
186;Laerm;55473;48.800;9.002;2023-02-23T02:42:32;41.20;37.97;53.37;;
186;Laerm;55473;48.800;9.002;2023-02-23T02:48:46;41.18;38.11;53.67;;
186;Laerm;55473;48.800;9.002;2023-02-23T02:54:21;40.55;37.81;50.02;;
186;Laerm;55473;48.800;9.002;2023-02-23T02:56:52;41.12;38.06;53.43;;
186;Laerm;55473;48.800;9.002;2023-02-23T02:59:26;40.54;38.07;52.42;;
186;Laerm;55473;48.800;9.002;2023-02-23T03:02:19;41.03;37.65;51.73;;
186;Laerm;55473;48.800;9.002;2023-02-23T03:05:19;40.99;37.88;51.49;;
186;Laerm;55473;48.800;9.002;2023-02-23T03:08:53;44.26;38.17;59.92;;
186;Laerm;55473;48.800;9.002;2023-02-23T03:15:44;45.51;38.30;60.04;;
186;Laerm;55473;48.800;9.002;2023-02-23T03:21:35;42.13;38.30;62.06;;
186;Laerm;55473;48.800;9.002;2023-02-23T03:30:28;46.50;38.18;61.82;;
186;Laerm;55473;48.800;9.002;2023-02-23T03:33:45;45.50;38.33;60.18;;
186;Laerm;55473;48.800;9.002;2023-02-23T03:36:40;40.78;38.12;47.50;;
186;Laerm;55473;48.800;9.002;2023-02-23T03:39:39;41.26;37.97;51.15;;
186;Laerm;55473;48.800;9.002;2023-02-23T03:42:30;42.00;37.96;51.42;;
186;Laerm;55473;48.800;9.002;2023-02-23T03:45:20;42.76;37.22;55.74;;
186;Laerm;55473;48.800;9.002;2023-02-23T03:48:10;42.61;37.56;55.22;;
186;Laerm;55473;48.800;9.002;2023-02-23T03:51:02;42.13;37.59;54.54;;
186;Laerm;55473;48.800;9.002;2023-02-23T03:54:21;41.98;37.57;51.77;;
186;Laerm;55473;48.800;9.002;2023-02-23T03:57:12;41.80;38.01;55.35;;
186;Laerm;55473;48.800;9.002;2023-02-23T04:00:05;41.46;37.93;53.61;;
186;Laerm;55473;48.800;9.002;2023-02-23T04:02:53;42.78;38.02;54.33;;
186;Laerm;55473;48.800;9.002;2023-02-23T04:05:41;44.48;38.79;54.12;;
186;Laerm;55473;48.800;9.002;2023-02-23T04:08:34;43.55;39.76;53.81;;
186;Laerm;55473;48.800;9.002;2023-02-23T04:11:41;43.15;39.82;52.12;;
186;Laerm;55473;48.800;9.002;2023-02-23T04:14:44;44.27;40.02;53.99;;
186;Laerm;55473;48.800;9.002;2023-02-23T04:17:15;45.27;39.73;55.11;;
186;Laerm;55473;48.800;9.002;2023-02-23T04:19:52;43.16;38.75;59.50;;
186;Laerm;55473;48.800;9.002;2023-02-23T04:22:20;47.20;39.19;61.82;;
186;Laerm;55473;48.800;9.002;2023-02-23T04:24:47;43.09;38.60;52.19;;
186;Laerm;55473;48.800;9.002;2023-02-23T04:27:14;44.43;39.62;56.36;;
186;Laerm;55473;48.800;9.002;2023-02-23T04:29:40;42.02;38.72;52.91;;
186;Laerm;55473;48.800;9.002;2023-02-23T04:32:16;44.36;39.47;54.01;;
186;Laerm;55473;48.800;9.002;2023-02-23T04:34:43;47.30;39.79;62.55;;
186;Laerm;55473;48.800;9.002;2023-02-23T04:37:09;48.94;39.26;61.88;;
186;Laerm;55473;48.800;9.002;2023-02-23T04:39:35;48.43;39.76;63.55;;
186;Laerm;55473;48.800;9.002;2023-02-23T04:42:01;49.09;39.47;62.97;;
186;Laerm;55473;48.800;9.002;2023-02-23T04:44:27;49.41;40.43;64.61;;
186;Laerm;55473;48.800;9.002;2023-02-23T04:46:55;50.89;40.70;64.55;;
186;Laerm;55473;48.800;9.002;2023-02-23T04:49:22;50.54;41.37;64.98;;
186;Laerm;55473;48.800;9.002;2023-02-23T04:51:48;49.26;40.91;63.36;;
186;Laerm;55473;48.800;9.002;2023-02-23T04:54:14;49.53;40.47;63.69;;
186;Laerm;55473;48.800;9.002;2023-02-23T04:56:40;48.48;40.64;61.40;;
186;Laerm;55473;48.800;9.002;2023-02-23T04:59:06;48.54;40.57;62.10;;
186;Laerm;55473;48.800;9.002;2023-02-23T05:01:32;47.01;40.56;61.36;;
186;Laerm;55473;48.800;9.002;2023-02-23T05:03:58;49.69;41.96;60.29;;
186;Laerm;55473;48.800;9.002;2023-02-23T05:06:27;49.17;42.06;66.24;;
186;Laerm;55473;48.800;9.002;2023-02-23T05:08:53;50.43;41.97;64.69;;
186;Laerm;55473;48.800;9.002;2023-02-23T05:11:19;49.44;42.16;63.14;;
186;Laerm;55473;48.800;9.002;2023-02-23T05:13:44;46.56;41.66;58.49;;
186;Laerm;55473;48.800;9.002;2023-02-23T05:16:10;50.65;42.49;63.25;;
186;Laerm;55473;48.800;9.002;2023-02-23T05:18:36;48.29;41.94;60.17;;
186;Laerm;55473;48.800;9.002;2023-02-23T05:21:05;47.26;42.58;63.01;;
186;Laerm;55473;48.800;9.002;2023-02-23T05:23:36;49.60;43.06;61.77;;
186;Laerm;55473;48.800;9.002;2023-02-23T05:26:06;49.79;42.64;62.12;;
186;Laerm;55473;48.800;9.002;2023-02-23T05:28:34;50.72;42.83;64.36;;
186;Laerm;55473;48.800;9.002;2023-02-23T05:31:02;50.04;43.09;63.55;;
186;Laerm;55473;48.800;9.002;2023-02-23T05:33:33;50.83;42.38;64.77;;
186;Laerm;55473;48.800;9.002;2023-02-23T05:36:04;48.88;41.29;64.68;;
186;Laerm;55473;48.800;9.002;2023-02-23T05:38:30;49.46;40.98;65.67;;
186;Laerm;55473;48.800;9.002;2023-02-23T05:40:56;51.34;41.44;67.53;;
186;Laerm;55473;48.800;9.002;2023-02-23T05:43:22;50.36;41.09;68.35;;
186;Laerm;55473;48.800;9.002;2023-02-23T05:45:47;47.72;41.27;63.49;;
186;Laerm;55473;48.800;9.002;2023-02-23T05:48:13;51.72;44.04;66.03;;
186;Laerm;55473;48.800;9.002;2023-02-23T05:50:39;51.62;43.40;66.49;;
186;Laerm;55473;48.800;9.002;2023-02-23T05:53:05;50.51;41.06;68.49;;
186;Laerm;55473;48.800;9.002;2023-02-23T05:55:31;47.54;41.25;64.03;;
186;Laerm;55473;48.800;9.002;2023-02-23T05:57:57;49.71;43.40;69.66;;
186;Laerm;55473;48.800;9.002;2023-02-23T06:00:23;47.54;40.51;64.59;;
186;Laerm;55473;48.800;9.002;2023-02-23T06:02:49;50.05;41.61;66.92;;
186;Laerm;55473;48.800;9.002;2023-02-23T06:05:17;51.17;41.60;65.78;;
186;Laerm;55473;48.800;9.002;2023-02-23T06:07:43;52.26;39.48;69.26;;
186;Laerm;55473;48.800;9.002;2023-02-23T06:10:10;47.59;40.00;64.79;;
186;Laerm;55473;48.800;9.002;2023-02-23T06:12:36;52.22;41.14;68.48;;
186;Laerm;55473;48.800;9.002;2023-02-23T06:15:02;47.46;38.92;63.28;;
186;Laerm;55473;48.800;9.002;2023-02-23T06:17:28;48.80;40.49;66.57;;
186;Laerm;55473;48.800;9.002;2023-02-23T06:19:55;45.74;40.51;60.06;;
186;Laerm;55473;48.800;9.002;2023-02-23T06:22:21;46.57;39.92;70.25;;
186;Laerm;55473;48.800;9.002;2023-02-23T06:24:47;47.02;38.80;62.10;;
186;Laerm;55473;48.800;9.002;2023-02-23T06:27:14;47.95;41.03;61.55;;
186;Laerm;55473;48.800;9.002;2023-02-23T06:29:40;48.08;40.53;66.14;;
186;Laerm;55473;48.800;9.002;2023-02-23T06:32:06;48.98;41.84;64.06;;
186;Laerm;55473;48.800;9.002;2023-02-23T06:34:32;47.66;39.86;63.62;;
186;Laerm;55473;48.800;9.002;2023-02-23T06:36:58;44.47;40.34;60.49;;
186;Laerm;55473;48.800;9.002;2023-02-23T06:39:24;46.94;39.76;60.11;;
186;Laerm;55473;48.800;9.002;2023-02-23T06:41:51;46.98;39.81;65.95;;
186;Laerm;55473;48.800;9.002;2023-02-23T06:44:17;46.57;41.06;61.07;;
186;Laerm;55473;48.800;9.002;2023-02-23T06:46:42;47.31;40.00;60.19;;
186;Laerm;55473;48.800;9.002;2023-02-23T06:49:10;48.46;40.58;61.69;;
186;Laerm;55473;48.800;9.002;2023-02-23T06:51:36;46.13;40.80;60.29;;
186;Laerm;55473;48.800;9.002;2023-02-23T06:54:02;47.70;39.70;60.47;;
186;Laerm;55473;48.800;9.002;2023-02-23T06:56:28;46.87;38.51;59.37;;
186;Laerm;55473;48.800;9.002;2023-02-23T06:58:54;47.42;40.62;59.82;;
186;Laerm;55473;48.800;9.002;2023-02-23T07:01:20;48.05;39.30;64.75;;
186;Laerm;55473;48.800;9.002;2023-02-23T07:03:46;47.04;39.10;61.33;;
186;Laerm;55473;48.800;9.002;2023-02-23T07:06:12;46.46;38.58;57.93;;
186;Laerm;55473;48.800;9.002;2023-02-23T07:08:38;48.53;39.94;62.98;;
186;Laerm;55473;48.800;9.002;2023-02-23T07:11:13;49.47;39.22;66.25;;
186;Laerm;55473;48.800;9.002;2023-02-23T07:13:40;48.69;39.02;64.77;;
186;Laerm;55473;48.800;9.002;2023-02-23T07:16:08;49.31;43.10;61.55;;
186;Laerm;55473;48.800;9.002;2023-02-23T07:18:35;52.69;45.05;64.58;;
186;Laerm;55473;48.800;9.002;2023-02-23T07:21:01;51.36;45.22;62.68;;
186;Laerm;55473;48.800;9.002;2023-02-23T07:23:27;50.42;42.76;65.18;;
186;Laerm;55473;48.800;9.002;2023-02-23T07:25:53;50.56;43.45;64.56;;
186;Laerm;55473;48.800;9.002;2023-02-23T07:28:21;50.44;42.76;65.86;;
186;Laerm;55473;48.800;9.002;2023-02-23T07:30:47;50.19;42.94;65.48;;
186;Laerm;55473;48.800;9.002;2023-02-23T07:33:15;52.44;44.31;72.05;;
186;Laerm;55473;48.800;9.002;2023-02-23T07:35:41;48.67;41.91;62.67;;
186;Laerm;55473;48.800;9.002;2023-02-23T07:38:07;50.90;41.26;63.06;;
186;Laerm;55473;48.800;9.002;2023-02-23T07:40:34;52.36;41.40;66.09;;
186;Laerm;55473;48.800;9.002;2023-02-23T07:43:00;49.31;42.02;64.67;;
186;Laerm;55473;48.800;9.002;2023-02-23T07:45:25;49.72;40.67;67.01;;
186;Laerm;55473;48.800;9.002;2023-02-23T07:47:51;48.37;40.48;60.35;;
186;Laerm;55473;48.800;9.002;2023-02-23T07:50:17;48.83;42.30;75.35;;
186;Laerm;55473;48.800;9.002;2023-02-23T07:52:43;50.00;41.20;72.94;;
186;Laerm;55473;48.800;9.002;2023-02-23T07:55:10;46.68;39.41;62.97;;
186;Laerm;55473;48.800;9.002;2023-02-23T07:57:36;48.54;40.71;65.50;;
186;Laerm;55473;48.800;9.002;2023-02-23T08:00:05;47.42;39.96;63.73;;
186;Laerm;55473;48.800;9.002;2023-02-23T08:02:31;49.50;39.93;69.73;;
186;Laerm;55473;48.800;9.002;2023-02-23T08:04:58;51.93;41.61;67.10;;
186;Laerm;55473;48.800;9.002;2023-02-23T08:07:24;48.74;43.52;67.29;;
186;Laerm;55473;48.800;9.002;2023-02-23T08:09:51;49.09;41.08;62.24;;
186;Laerm;55473;48.800;9.002;2023-02-23T08:12:18;47.87;39.19;61.46;;
186;Laerm;55473;48.800;9.002;2023-02-23T08:14:44;45.78;39.44;61.13;;
186;Laerm;55473;48.800;9.002;2023-02-23T08:17:10;51.22;39.76;68.05;;
186;Laerm;55473;48.800;9.002;2023-02-23T08:19:37;52.95;41.93;67.72;;
186;Laerm;55473;48.800;9.002;2023-02-23T08:22:03;52.10;40.01;64.02;;
186;Laerm;55473;48.800;9.002;2023-02-23T08:24:29;46.23;38.23;60.57;;
186;Laerm;55473;48.800;9.002;2023-02-23T08:27:01;48.45;39.73;63.42;;
186;Laerm;55473;48.800;9.002;2023-02-23T08:29:27;50.04;41.20;69.84;;
186;Laerm;55473;48.800;9.002;2023-02-23T08:31:53;49.26;40.31;61.76;;
186;Laerm;55473;48.800;9.002;2023-02-23T08:34:21;50.88;39.71;65.11;;
186;Laerm;55473;48.800;9.002;2023-02-23T08:36:48;45.91;38.89;61.55;;
186;Laerm;55473;48.800;9.002;2023-02-23T08:39:15;48.97;40.05;64.14;;
186;Laerm;55473;48.800;9.002;2023-02-23T08:41:41;49.27;38.70;64.60;;
186;Laerm;55473;48.800;9.002;2023-02-23T08:44:07;51.00;38.76;68.83;;
186;Laerm;55473;48.800;9.002;2023-02-23T08:46:33;45.46;39.18;57.79;;
186;Laerm;55473;48.800;9.002;2023-02-23T08:48:59;48.05;41.48;59.19;;
186;Laerm;55473;48.800;9.002;2023-02-23T08:51:25;46.44;37.95;61.50;;
186;Laerm;55473;48.800;9.002;2023-02-23T08:53:51;44.33;37.93;60.30;;
186;Laerm;55473;48.800;9.002;2023-02-23T08:56:17;43.41;38.14;55.09;;
186;Laerm;55473;48.800;9.002;2023-02-23T08:58:43;43.63;38.29;56.98;;
186;Laerm;55473;48.800;9.002;2023-02-23T09:01:20;47.09;38.67;62.67;;
186;Laerm;55473;48.800;9.002;2023-02-23T09:03:49;52.42;39.42;68.49;;
186;Laerm;55473;48.800;9.002;2023-02-23T09:06:19;50.03;40.05;61.40;;
186;Laerm;55473;48.800;9.002;2023-02-23T09:08:45;53.04;40.56;65.91;;
186;Laerm;55473;48.800;9.002;2023-02-23T09:11:11;50.05;40.30;63.88;;
186;Laerm;55473;48.800;9.002;2023-02-23T09:13:37;49.66;37.97;65.77;;
186;Laerm;55473;48.800;9.002;2023-02-23T09:16:05;49.91;39.86;66.09;;
186;Laerm;55473;48.800;9.002;2023-02-23T09:18:33;50.49;40.77;68.73;;
186;Laerm;55473;48.800;9.002;2023-02-23T09:21:03;49.95;40.78;67.95;;
186;Laerm;55473;48.800;9.002;2023-02-23T09:23:36;49.58;41.48;64.94;;
186;Laerm;55473;48.800;9.002;2023-02-23T09:26:05;46.97;38.28;64.27;;
186;Laerm;55473;48.800;9.002;2023-02-23T09:28:33;49.08;38.43;67.73;;
186;Laerm;55473;48.800;9.002;2023-02-23T09:31:13;48.84;36.61;64.99;;
186;Laerm;55473;48.800;9.002;2023-02-23T09:33:40;46.37;38.35;61.18;;
186;Laerm;55473;48.800;9.002;2023-02-23T09:36:20;47.25;37.95;68.88;;
186;Laerm;55473;48.800;9.002;2023-02-23T09:38:50;49.17;39.43;65.26;;
186;Laerm;55473;48.800;9.002;2023-02-23T09:45:02;53.94;40.12;69.84;;
186;Laerm;55473;48.800;9.002;2023-02-23T09:48:26;51.44;40.26;65.91;;
186;Laerm;55473;48.800;9.002;2023-02-23T09:50:56;50.50;40.75;63.71;;
186;Laerm;55473;48.800;9.002;2023-02-23T09:53:55;48.66;38.67;62.93;;
186;Laerm;55473;48.800;9.002;2023-02-23T09:56:29;43.84;39.31;58.88;;
186;Laerm;55473;48.800;9.002;2023-02-23T09:58:58;49.26;39.68;69.84;;
186;Laerm;55473;48.800;9.002;2023-02-23T10:01:42;48.97;40.63;60.77;;
186;Laerm;55473;48.800;9.002;2023-02-23T10:04:26;53.59;39.40;71.20;;
186;Laerm;55473;48.800;9.002;2023-02-23T10:07:00;50.66;39.97;63.72;;
186;Laerm;55473;48.800;9.002;2023-02-23T10:16:17;47.46;37.38;66.19;;
186;Laerm;55473;48.800;9.002;2023-02-23T10:19:31;50.66;38.78;61.86;;
186;Laerm;55473;48.800;9.002;2023-02-23T10:22:04;44.71;38.27;55.85;;
186;Laerm;55473;48.800;9.002;2023-02-23T10:25:04;43.22;38.03;53.85;;
186;Laerm;55473;48.800;9.002;2023-02-23T10:27:44;43.82;38.00;59.56;;
186;Laerm;55473;48.800;9.002;2023-02-23T10:33:14;48.75;37.09;64.48;;
186;Laerm;55473;48.800;9.002;2023-02-23T10:35:44;46.15;37.14;60.93;;
186;Laerm;55473;48.800;9.002;2023-02-23T10:38:16;50.71;36.10;75.33;;
186;Laerm;55473;48.800;9.002;2023-02-23T10:40:53;43.75;37.98;55.99;;
186;Laerm;55473;48.800;9.002;2023-02-23T10:43:21;44.71;37.01;61.85;;
186;Laerm;55473;48.800;9.002;2023-02-23T10:45:51;45.26;36.56;61.69;;
186;Laerm;55473;48.800;9.002;2023-02-23T10:48:23;45.51;37.28;61.66;;
186;Laerm;55473;48.800;9.002;2023-02-23T10:50:54;43.99;36.62;65.02;;
186;Laerm;55473;48.800;9.002;2023-02-23T10:53:32;44.44;38.32;56.81;;
186;Laerm;55473;48.800;9.002;2023-02-23T10:56:12;43.07;36.75;60.07;;
186;Laerm;55473;48.800;9.002;2023-02-23T10:58:43;45.11;36.70;57.91;;
186;Laerm;55473;48.800;9.002;2023-02-23T11:01:14;50.21;37.40;73.57;;
186;Laerm;55473;48.800;9.002;2023-02-23T11:03:48;50.67;39.57;72.09;;
186;Laerm;55473;48.800;9.002;2023-02-23T11:06:30;46.46;38.84;65.19;;
186;Laerm;55473;48.800;9.002;2023-02-23T11:08:57;41.85;38.33;54.01;;
186;Laerm;55473;48.800;9.002;2023-02-23T11:11:27;43.68;38.43;58.93;;
186;Laerm;55473;48.800;9.002;2023-02-23T11:13:56;45.37;37.71;57.74;;
186;Laerm;55473;48.800;9.002;2023-02-23T11:16:27;44.81;37.95;62.33;;
186;Laerm;55473;48.800;9.002;2023-02-23T11:19:06;42.54;37.63;57.69;;
186;Laerm;55473;48.800;9.002;2023-02-23T11:21:37;47.22;36.86;64.33;;
186;Laerm;55473;48.800;9.002;2023-02-23T11:26:54;43.79;38.28;61.52;;
186;Laerm;55473;48.800;9.002;2023-02-23T11:29:38;47.00;38.28;67.51;;
186;Laerm;55473;48.800;9.002;2023-02-23T11:35:33;45.25;38.53;60.84;;
186;Laerm;55473;48.800;9.002;2023-02-23T11:38:25;44.82;38.36;57.98;;
186;Laerm;55473;48.800;9.002;2023-02-23T11:41:20;45.75;38.36;69.55;;
186;Laerm;55473;48.800;9.002;2023-02-23T11:43:51;45.31;38.10;59.91;;
186;Laerm;55473;48.800;9.002;2023-02-23T11:46:21;44.92;37.37;59.61;;
186;Laerm;55473;48.800;9.002;2023-02-23T11:49:03;47.29;38.03;58.28;;
186;Laerm;55473;48.800;9.002;2023-02-23T11:51:37;44.21;37.81;55.46;;
186;Laerm;55473;48.800;9.002;2023-02-23T11:54:07;49.39;36.67;63.36;;
186;Laerm;55473;48.800;9.002;2023-02-23T11:56:48;46.68;38.39;63.41;;
186;Laerm;55473;48.800;9.002;2023-02-23T11:59:31;43.51;37.26;58.14;;
186;Laerm;55473;48.800;9.002;2023-02-23T12:02:30;45.40;37.88;64.39;;
186;Laerm;55473;48.800;9.002;2023-02-23T12:05:24;43.94;38.52;57.42;;
186;Laerm;55473;48.800;9.002;2023-02-23T12:08:08;44.71;37.18;64.34;;
186;Laerm;55473;48.800;9.002;2023-02-23T12:10:42;41.60;36.97;54.18;;
186;Laerm;55473;48.800;9.002;2023-02-23T12:16:27;42.20;37.23;55.24;;
186;Laerm;55473;48.800;9.002;2023-02-23T12:19:43;46.80;37.74;64.79;;
186;Laerm;55473;48.800;9.002;2023-02-23T12:22:21;46.13;36.64;62.57;;
186;Laerm;55473;48.800;9.002;2023-02-23T12:25:14;47.17;37.23;63.10;;
186;Laerm;55473;48.800;9.002;2023-02-23T12:28:16;42.46;35.64;59.36;;
186;Laerm;55473;48.800;9.002;2023-02-23T12:30:50;44.64;36.52;67.22;;
186;Laerm;55473;48.800;9.002;2023-02-23T12:41:39;45.56;37.13;58.41;;
186;Laerm;55473;48.800;9.002;2023-02-23T12:46:49;46.62;36.84;61.48;;
186;Laerm;55473;48.800;9.002;2023-02-23T12:49:44;47.47;37.26;63.38;;
186;Laerm;55473;48.800;9.002;2023-02-23T12:52:19;46.24;37.02;64.06;;
186;Laerm;55473;48.800;9.002;2023-02-23T12:54:46;48.84;37.88;65.95;;
186;Laerm;55473;48.800;9.002;2023-02-23T12:57:52;44.50;36.84;70.17;;
186;Laerm;55473;48.800;9.002;2023-02-23T13:00:44;46.36;38.95;64.71;;
186;Laerm;55473;48.800;9.002;2023-02-23T13:09:46;44.41;39.62;59.75;;
186;Laerm;55473;48.800;9.002;2023-02-23T13:12:56;44.19;38.38;67.27;;
186;Laerm;55473;48.800;9.002;2023-02-23T13:15:52;43.14;37.99;55.91;;
186;Laerm;55473;48.800;9.002;2023-02-23T13:21:36;42.30;37.32;59.25;;
186;Laerm;55473;48.800;9.002;2023-02-23T13:24:18;41.91;36.23;61.48;;
186;Laerm;55473;48.800;9.002;2023-02-23T13:29:40;46.92;37.37;59.65;;
186;Laerm;55473;48.800;9.002;2023-02-23T13:32:17;47.50;38.64;65.02;;
186;Laerm;55473;48.800;9.002;2023-02-23T13:34:57;45.60;37.32;57.26;;
186;Laerm;55473;48.800;9.002;2023-02-23T13:40:55;46.96;38.19;59.49;;
186;Laerm;55473;48.800;9.002;2023-02-23T13:43:33;50.30;37.81;63.81;;
186;Laerm;55473;48.800;9.002;2023-02-23T13:46:29;52.76;37.71;65.50;;
186;Laerm;55473;48.800;9.002;2023-02-23T13:54:34;46.68;38.98;60.35;;
186;Laerm;55473;48.800;9.002;2023-02-23T13:57:09;45.57;39.25;57.83;;
186;Laerm;55473;48.800;9.002;2023-02-23T13:59:42;47.53;40.60;58.61;;
186;Laerm;55473;48.800;9.002;2023-02-23T14:02:39;51.65;40.95;76.11;;
186;Laerm;55473;48.800;9.002;2023-02-23T14:05:22;51.81;41.38;66.57;;
186;Laerm;55473;48.800;9.002;2023-02-23T14:08:02;47.64;40.21;59.43;;
186;Laerm;55473;48.800;9.002;2023-02-23T14:10:42;49.70;39.77;58.12;;
186;Laerm;55473;48.800;9.002;2023-02-23T14:23:47;46.12;40.10;59.30;;
186;Laerm;55473;48.800;9.002;2023-02-23T14:26:38;48.07;41.33;62.39;;
186;Laerm;55473;48.800;9.002;2023-02-23T14:34:50;46.65;38.42;56.38;;
186;Laerm;55473;48.800;9.002;2023-02-23T14:37:40;46.02;38.47;63.39;;
186;Laerm;55473;48.800;9.002;2023-02-23T14:40:40;54.46;40.19;69.16;;
186;Laerm;55473;48.800;9.002;2023-02-23T14:43:39;50.65;42.96;61.05;;
186;Laerm;55473;48.800;9.002;2023-02-23T14:46:27;49.33;42.35;62.62;;
186;Laerm;55473;48.800;9.002;2023-02-23T14:51:36;52.32;41.93;69.22;;
186;Laerm;55473;48.800;9.002;2023-02-23T14:54:32;44.66;41.30;59.83;;
186;Laerm;55473;48.800;9.002;2023-02-23T14:57:03;46.10;41.87;58.08;;
186;Laerm;55473;48.800;9.002;2023-02-23T14:59:41;49.87;42.04;67.11;;
186;Laerm;55473;48.800;9.002;2023-02-23T15:02:20;51.71;43.21;72.30;;
186;Laerm;55473;48.800;9.002;2023-02-23T15:04:47;50.81;41.91;71.32;;
186;Laerm;55473;48.800;9.002;2023-02-23T15:07:28;45.54;42.39;58.74;;
186;Laerm;55473;48.800;9.002;2023-02-23T15:09:59;54.83;42.18;74.03;;
186;Laerm;55473;48.800;9.002;2023-02-23T15:12:35;49.34;42.35;67.49;;
186;Laerm;55473;48.800;9.002;2023-02-23T15:15:11;48.86;41.86;66.15;;
186;Laerm;55473;48.800;9.002;2023-02-23T15:17:45;49.45;42.96;67.66;;
186;Laerm;55473;48.800;9.002;2023-02-23T15:20:20;52.09;43.22;68.25;;
186;Laerm;55473;48.800;9.002;2023-02-23T15:22:55;53.20;42.55;71.44;;
186;Laerm;55473;48.800;9.002;2023-02-23T15:25:42;52.02;41.48;72.59;;
186;Laerm;55473;48.800;9.002;2023-02-23T15:28:24;50.88;40.82;66.36;;
186;Laerm;55473;48.800;9.002;2023-02-23T15:30:54;51.51;43.17;70.33;;
186;Laerm;55473;48.800;9.002;2023-02-23T15:33:22;49.70;44.90;64.71;;
186;Laerm;55473;48.800;9.002;2023-02-23T15:36:08;50.48;43.78;64.74;;
186;Laerm;55473;48.800;9.002;2023-02-23T15:38:43;52.79;40.74;73.11;;
186;Laerm;55473;48.800;9.002;2023-02-23T15:41:31;45.75;40.32;66.26;;
186;Laerm;55473;48.800;9.002;2023-02-23T15:44:23;43.88;39.51;55.89;;
186;Laerm;55473;48.800;9.002;2023-02-23T15:46:57;48.37;40.29;67.50;;
186;Laerm;55473;48.800;9.002;2023-02-23T15:49:39;48.71;40.38;58.66;;
186;Laerm;55473;48.800;9.002;2023-02-23T15:52:14;46.01;38.92;57.40;;
186;Laerm;55473;48.800;9.002;2023-02-23T15:54:59;46.85;39.67;59.01;;
186;Laerm;55473;48.800;9.002;2023-02-23T15:57:32;44.79;39.01;57.52;;
186;Laerm;55473;48.800;9.002;2023-02-23T16:00:04;53.98;38.34;78.54;;
186;Laerm;55473;48.800;9.002;2023-02-23T16:02:36;47.63;40.43;67.80;;
186;Laerm;55473;48.800;9.002;2023-02-23T16:05:21;45.13;39.05;67.39;;
186;Laerm;55473;48.800;9.002;2023-02-23T16:08:04;45.23;39.30;58.44;;
186;Laerm;55473;48.800;9.002;2023-02-23T16:10:44;45.59;39.88;69.43;;
186;Laerm;55473;48.800;9.002;2023-02-23T16:13:19;51.18;39.55;71.90;;
186;Laerm;55473;48.800;9.002;2023-02-23T16:15:46;42.77;38.57;52.93;;
186;Laerm;55473;48.800;9.002;2023-02-23T16:18:27;47.66;40.01;60.69;;
186;Laerm;55473;48.800;9.002;2023-02-23T16:20:58;49.31;39.75;68.48;;
186;Laerm;55473;48.800;9.002;2023-02-23T16:23:41;48.09;38.61;66.80;;
186;Laerm;55473;48.800;9.002;2023-02-23T16:26:29;44.71;38.28;65.75;;
186;Laerm;55473;48.800;9.002;2023-02-23T16:29:00;44.96;38.59;57.94;;
186;Laerm;55473;48.800;9.002;2023-02-23T16:31:52;48.48;39.97;59.55;;
186;Laerm;55473;48.800;9.002;2023-02-23T16:34:25;45.96;39.46;55.55;;
186;Laerm;55473;48.800;9.002;2023-02-23T16:37:03;46.01;39.39;62.55;;
186;Laerm;55473;48.800;9.002;2023-02-23T16:39:40;46.94;39.34;60.23;;
186;Laerm;55473;48.800;9.002;2023-02-23T16:42:22;48.90;37.78;61.97;;
186;Laerm;55473;48.800;9.002;2023-02-23T16:44:50;44.95;38.57;56.53;;
186;Laerm;55473;48.800;9.002;2023-02-23T16:47:35;49.64;40.13;60.94;;